sensor_id;sensor_type;location;lat;lon;timestamp;P1;durP1;ratioP1;P2;durP2;ratioP2
49962;SDS011;36180;57.678;11.910;2022-07-18T00:01:52;12.25;;;5.28;;
49962;SDS011;36180;57.678;11.910;2022-07-18T00:04:20;13.20;;;5.65;;
49962;SDS011;36180;57.678;11.910;2022-07-18T00:06:49;15.20;;;5.18;;
49962;SDS011;36180;57.678;11.910;2022-07-18T00:09:16;13.45;;;5.40;;
49962;SDS011;36180;57.678;11.910;2022-07-18T00:11:43;11.35;;;5.20;;
49962;SDS011;36180;57.678;11.910;2022-07-18T00:14:10;10.70;;;4.97;;
49962;SDS011;36180;57.678;11.910;2022-07-18T00:16:37;14.13;;;5.25;;
49962;SDS011;36180;57.678;11.910;2022-07-18T00:19:05;12.55;;;4.93;;
49962;SDS011;36180;57.678;11.910;2022-07-18T00:21:32;12.25;;;5.30;;
49962;SDS011;36180;57.678;11.910;2022-07-18T00:24:01;15.57;;;5.80;;
49962;SDS011;36180;57.678;11.910;2022-07-18T00:26:28;14.40;;;5.63;;
49962;SDS011;36180;57.678;11.910;2022-07-18T00:28:55;13.52;;;5.13;;
49962;SDS011;36180;57.678;11.910;2022-07-18T00:31:22;14.75;;;5.05;;
49962;SDS011;36180;57.678;11.910;2022-07-18T00:33:49;15.02;;;5.40;;
49962;SDS011;36180;57.678;11.910;2022-07-18T00:36:16;12.65;;;5.40;;
49962;SDS011;36180;57.678;11.910;2022-07-18T00:38:43;11.90;;;4.82;;
49962;SDS011;36180;57.678;11.910;2022-07-18T00:41:14;16.65;;;6.15;;
49962;SDS011;36180;57.678;11.910;2022-07-18T00:43:42;11.82;;;4.35;;
49962;SDS011;36180;57.678;11.910;2022-07-18T00:46:09;13.00;;;5.32;;
49962;SDS011;36180;57.678;11.910;2022-07-18T00:48:37;13.30;;;5.15;;
49962;SDS011;36180;57.678;11.910;2022-07-18T00:51:04;11.48;;;4.97;;
49962;SDS011;36180;57.678;11.910;2022-07-18T00:53:31;10.82;;;4.60;;
49962;SDS011;36180;57.678;11.910;2022-07-18T00:55:58;12.38;;;5.05;;
49962;SDS011;36180;57.678;11.910;2022-07-18T00:58:27;11.45;;;4.38;;
49962;SDS011;36180;57.678;11.910;2022-07-18T01:00:55;10.27;;;4.40;;
49962;SDS011;36180;57.678;11.910;2022-07-18T01:03:40;14.55;;;4.88;;
49962;SDS011;36180;57.678;11.910;2022-07-18T01:06:07;16.25;;;4.90;;
49962;SDS011;36180;57.678;11.910;2022-07-18T01:08:34;12.98;;;4.00;;
49962;SDS011;36180;57.678;11.910;2022-07-18T01:11:03;15.80;;;5.13;;
49962;SDS011;36180;57.678;11.910;2022-07-18T01:13:31;12.52;;;5.18;;
49962;SDS011;36180;57.678;11.910;2022-07-18T01:15:58;9.75;;;4.90;;
49962;SDS011;36180;57.678;11.910;2022-07-18T01:18:25;9.45;;;4.03;;
49962;SDS011;36180;57.678;11.910;2022-07-18T01:20:54;14.30;;;4.55;;
49962;SDS011;36180;57.678;11.910;2022-07-18T01:23:21;10.95;;;4.65;;
49962;SDS011;36180;57.678;11.910;2022-07-18T01:25:48;10.93;;;4.72;;
49962;SDS011;36180;57.678;11.910;2022-07-18T01:28:15;9.98;;;4.10;;
49962;SDS011;36180;57.678;11.910;2022-07-18T01:30:42;11.23;;;4.90;;
49962;SDS011;36180;57.678;11.910;2022-07-18T01:33:09;8.32;;;4.68;;
49962;SDS011;36180;57.678;11.910;2022-07-18T01:35:36;11.82;;;4.25;;
49962;SDS011;36180;57.678;11.910;2022-07-18T01:38:04;10.05;;;4.65;;
49962;SDS011;36180;57.678;11.910;2022-07-18T01:40:32;13.45;;;5.00;;
49962;SDS011;36180;57.678;11.910;2022-07-18T01:42:59;8.82;;;4.60;;
49962;SDS011;36180;57.678;11.910;2022-07-18T01:45:26;13.25;;;5.10;;
49962;SDS011;36180;57.678;11.910;2022-07-18T01:47:53;13.23;;;4.65;;
49962;SDS011;36180;57.678;11.910;2022-07-18T01:50:20;10.77;;;4.57;;
49962;SDS011;36180;57.678;11.910;2022-07-18T01:52:47;12.13;;;4.93;;
49962;SDS011;36180;57.678;11.910;2022-07-18T01:55:16;14.05;;;5.70;;
49962;SDS011;36180;57.678;11.910;2022-07-18T01:57:43;14.57;;;4.97;;
49962;SDS011;36180;57.678;11.910;2022-07-18T02:00:10;11.63;;;5.75;;
49962;SDS011;36180;57.678;11.910;2022-07-18T02:02:38;15.98;;;5.22;;
49962;SDS011;36180;57.678;11.910;2022-07-18T02:05:06;14.75;;;5.78;;
49962;SDS011;36180;57.678;11.910;2022-07-18T02:07:35;13.77;;;5.70;;
49962;SDS011;36180;57.678;11.910;2022-07-18T02:10:04;16.45;;;6.40;;
49962;SDS011;36180;57.678;11.910;2022-07-18T02:12:34;13.73;;;6.53;;
49962;SDS011;36180;57.678;11.910;2022-07-18T02:15:02;9.98;;;5.75;;
49962;SDS011;36180;57.678;11.910;2022-07-18T02:17:30;11.82;;;5.75;;
49962;SDS011;36180;57.678;11.910;2022-07-18T02:19:57;16.23;;;6.60;;
49962;SDS011;36180;57.678;11.910;2022-07-18T02:22:24;20.35;;;6.82;;
49962;SDS011;36180;57.678;11.910;2022-07-18T02:24:51;17.10;;;6.82;;
49962;SDS011;36180;57.678;11.910;2022-07-18T02:27:18;15.27;;;6.35;;
49962;SDS011;36180;57.678;11.910;2022-07-18T02:29:47;16.00;;;6.13;;
49962;SDS011;36180;57.678;11.910;2022-07-18T02:32:15;16.30;;;6.22;;
49962;SDS011;36180;57.678;11.910;2022-07-18T02:34:42;12.00;;;5.90;;
49962;SDS011;36180;57.678;11.910;2022-07-18T02:37:09;17.40;;;6.93;;
49962;SDS011;36180;57.678;11.910;2022-07-18T02:39:37;10.55;;;6.57;;
49962;SDS011;36180;57.678;11.910;2022-07-18T02:42:04;12.60;;;6.68;;
49962;SDS011;36180;57.678;11.910;2022-07-18T02:44:31;18.40;;;7.45;;
49962;SDS011;36180;57.678;11.910;2022-07-18T02:46:59;15.75;;;7.00;;
49962;SDS011;36180;57.678;11.910;2022-07-18T02:49:26;15.00;;;6.70;;
49962;SDS011;36180;57.678;11.910;2022-07-18T02:51:54;15.73;;;6.32;;
49962;SDS011;36180;57.678;11.910;2022-07-18T02:54:22;14.55;;;6.68;;
49962;SDS011;36180;57.678;11.910;2022-07-18T02:56:49;15.38;;;7.05;;
49962;SDS011;36180;57.678;11.910;2022-07-18T02:59:16;18.67;;;6.72;;
49962;SDS011;36180;57.678;11.910;2022-07-18T03:01:43;17.10;;;7.32;;
49962;SDS011;36180;57.678;11.910;2022-07-18T03:04:12;15.77;;;7.20;;
49962;SDS011;36180;57.678;11.910;2022-07-18T03:06:39;15.38;;;7.22;;
49962;SDS011;36180;57.678;11.910;2022-07-18T03:09:06;17.80;;;7.07;;
49962;SDS011;36180;57.678;11.910;2022-07-18T03:11:33;11.55;;;6.38;;
49962;SDS011;36180;57.678;11.910;2022-07-18T03:14:00;13.77;;;6.47;;
49962;SDS011;36180;57.678;11.910;2022-07-18T03:16:27;14.50;;;6.65;;
49962;SDS011;36180;57.678;11.910;2022-07-18T03:18:54;17.00;;;6.90;;
49962;SDS011;36180;57.678;11.910;2022-07-18T03:21:23;15.50;;;6.85;;
49962;SDS011;36180;57.678;11.910;2022-07-18T03:23:49;15.93;;;6.70;;
49962;SDS011;36180;57.678;11.910;2022-07-18T03:26:17;17.60;;;7.00;;
49962;SDS011;36180;57.678;11.910;2022-07-18T03:28:44;14.63;;;6.78;;
49962;SDS011;36180;57.678;11.910;2022-07-18T03:31:11;13.02;;;6.70;;
49962;SDS011;36180;57.678;11.910;2022-07-18T03:33:38;14.35;;;6.72;;
49962;SDS011;36180;57.678;11.910;2022-07-18T03:36:05;15.50;;;6.28;;
49962;SDS011;36180;57.678;11.910;2022-07-18T03:38:33;11.90;;;6.30;;
49962;SDS011;36180;57.678;11.910;2022-07-18T03:41:02;14.63;;;7.18;;
49962;SDS011;36180;57.678;11.910;2022-07-18T03:43:29;12.88;;;6.45;;
49962;SDS011;36180;57.678;11.910;2022-07-18T03:45:57;13.77;;;6.55;;
49962;SDS011;36180;57.678;11.910;2022-07-18T03:48:24;10.70;;;6.43;;
49962;SDS011;36180;57.678;11.910;2022-07-18T03:50:51;11.55;;;6.25;;
49962;SDS011;36180;57.678;11.910;2022-07-18T03:53:18;13.50;;;6.30;;
49962;SDS011;36180;57.678;11.910;2022-07-18T03:55:46;8.95;;;6.18;;
49962;SDS011;36180;57.678;11.910;2022-07-18T03:58:13;17.98;;;6.70;;
49962;SDS011;36180;57.678;11.910;2022-07-18T04:00:40;14.63;;;6.55;;
49962;SDS011;36180;57.678;11.910;2022-07-18T04:03:07;17.40;;;6.95;;
49962;SDS011;36180;57.678;11.910;2022-07-18T04:05:34;11.40;;;6.10;;
49962;SDS011;36180;57.678;11.910;2022-07-18T04:08:01;7.70;;;5.47;;
49962;SDS011;36180;57.678;11.910;2022-07-18T04:10:28;12.27;;;6.43;;
49962;SDS011;36180;57.678;11.910;2022-07-18T04:12:57;12.07;;;6.25;;
49962;SDS011;36180;57.678;11.910;2022-07-18T04:15:24;13.05;;;6.45;;
49962;SDS011;36180;57.678;11.910;2022-07-18T04:17:51;10.95;;;5.70;;
49962;SDS011;36180;57.678;11.910;2022-07-18T04:20:19;10.75;;;6.53;;
49962;SDS011;36180;57.678;11.910;2022-07-18T04:22:48;12.25;;;6.53;;
49962;SDS011;36180;57.678;11.910;2022-07-18T04:25:16;13.32;;;6.45;;
49962;SDS011;36180;57.678;11.910;2022-07-18T04:27:44;14.05;;;6.78;;
49962;SDS011;36180;57.678;11.910;2022-07-18T04:30:13;11.93;;;6.30;;
49962;SDS011;36180;57.678;11.910;2022-07-18T04:32:41;10.90;;;5.70;;
49962;SDS011;36180;57.678;11.910;2022-07-18T04:35:08;9.98;;;5.93;;
49962;SDS011;36180;57.678;11.910;2022-07-18T04:37:36;11.93;;;5.55;;
49962;SDS011;36180;57.678;11.910;2022-07-18T04:40:03;9.40;;;6.43;;
49962;SDS011;36180;57.678;11.910;2022-07-18T04:42:32;13.10;;;5.95;;
49962;SDS011;36180;57.678;11.910;2022-07-18T04:44:59;9.13;;;5.30;;
49962;SDS011;36180;57.678;11.910;2022-07-18T04:47:27;11.90;;;6.10;;
49962;SDS011;36180;57.678;11.910;2022-07-18T04:49:55;9.05;;;5.95;;
49962;SDS011;36180;57.678;11.910;2022-07-18T04:52:22;13.75;;;5.70;;
49962;SDS011;36180;57.678;11.910;2022-07-18T04:54:49;14.00;;;6.65;;
49962;SDS011;36180;57.678;11.910;2022-07-18T04:57:17;11.60;;;5.50;;
49962;SDS011;36180;57.678;11.910;2022-07-18T04:59:44;14.63;;;5.50;;
49962;SDS011;36180;57.678;11.910;2022-07-18T05:02:12;11.15;;;5.05;;
49962;SDS011;36180;57.678;11.910;2022-07-18T05:04:41;14.75;;;5.53;;
49962;SDS011;36180;57.678;11.910;2022-07-18T05:07:07;12.05;;;5.78;;
49962;SDS011;36180;57.678;11.910;2022-07-18T05:09:34;13.15;;;6.45;;
49962;SDS011;36180;57.678;11.910;2022-07-18T05:12:02;12.32;;;5.40;;
49962;SDS011;36180;57.678;11.910;2022-07-18T05:14:29;10.57;;;5.22;;
49962;SDS011;36180;57.678;11.910;2022-07-18T05:16:56;13.23;;;6.05;;
49962;SDS011;36180;57.678;11.910;2022-07-18T05:19:24;11.48;;;6.05;;
49962;SDS011;36180;57.678;11.910;2022-07-18T05:21:52;11.70;;;5.60;;
49962;SDS011;36180;57.678;11.910;2022-07-18T05:24:19;12.80;;;5.95;;
49962;SDS011;36180;57.678;11.910;2022-07-18T05:26:46;8.18;;;5.03;;
49962;SDS011;36180;57.678;11.910;2022-07-18T05:29:13;8.82;;;5.47;;
49962;SDS011;36180;57.678;11.910;2022-07-18T05:31:40;12.45;;;6.15;;
49962;SDS011;36180;57.678;11.910;2022-07-18T05:34:07;10.85;;;5.65;;
49962;SDS011;36180;57.678;11.910;2022-07-18T05:36:34;14.10;;;6.35;;
49962;SDS011;36180;57.678;11.910;2022-07-18T05:39:03;11.45;;;5.90;;
49962;SDS011;36180;57.678;11.910;2022-07-18T05:41:30;9.60;;;5.78;;
49962;SDS011;36180;57.678;11.910;2022-07-18T05:43:57;10.80;;;6.40;;
49962;SDS011;36180;57.678;11.910;2022-07-18T05:46:24;11.73;;;6.93;;
49962;SDS011;36180;57.678;11.910;2022-07-18T05:48:51;14.63;;;7.00;;
49962;SDS011;36180;57.678;11.910;2022-07-18T05:51:19;15.95;;;7.00;;
49962;SDS011;36180;57.678;11.910;2022-07-18T05:53:46;15.38;;;7.35;;
49962;SDS011;36180;57.678;11.910;2022-07-18T05:56:15;17.33;;;7.78;;
49962;SDS011;36180;57.678;11.910;2022-07-18T05:58:42;16.23;;;7.07;;
49962;SDS011;36180;57.678;11.910;2022-07-18T06:01:09;13.23;;;7.53;;
49962;SDS011;36180;57.678;11.910;2022-07-18T06:03:37;14.18;;;7.63;;
49962;SDS011;36180;57.678;11.910;2022-07-18T06:06:04;11.82;;;8.50;;
49962;SDS011;36180;57.678;11.910;2022-07-18T06:08:31;12.85;;;7.75;;
49962;SDS011;36180;57.678;11.910;2022-07-18T06:10:58;19.55;;;10.00;;
49962;SDS011;36180;57.678;11.910;2022-07-18T06:13:26;24.80;;;9.38;;
49962;SDS011;36180;57.678;11.910;2022-07-18T06:15:53;14.55;;;10.18;;
49962;SDS011;36180;57.678;11.910;2022-07-18T06:18:20;16.75;;;10.23;;
49962;SDS011;36180;57.678;11.910;2022-07-18T06:20:47;19.27;;;10.93;;
49962;SDS011;36180;57.678;11.910;2022-07-18T06:23:14;17.63;;;10.23;;
49962;SDS011;36180;57.678;11.910;2022-07-18T06:25:41;14.40;;;8.65;;
49962;SDS011;36180;57.678;11.910;2022-07-18T06:28:08;19.75;;;9.70;;
49962;SDS011;36180;57.678;11.910;2022-07-18T06:30:36;13.18;;;9.20;;
49962;SDS011;36180;57.678;11.910;2022-07-18T06:33:03;13.48;;;8.82;;
49962;SDS011;36180;57.678;11.910;2022-07-18T06:35:32;17.08;;;8.82;;
49962;SDS011;36180;57.678;11.910;2022-07-18T06:38:00;14.18;;;7.78;;
49962;SDS011;36180;57.678;11.910;2022-07-18T06:40:27;16.27;;;8.98;;
49962;SDS011;36180;57.678;11.910;2022-07-18T06:42:54;14.07;;;8.27;;
49962;SDS011;36180;57.678;11.910;2022-07-18T06:45:21;13.30;;;8.02;;
49962;SDS011;36180;57.678;11.910;2022-07-18T06:47:50;16.20;;;8.40;;
49962;SDS011;36180;57.678;11.910;2022-07-18T06:50:17;16.80;;;8.77;;
49962;SDS011;36180;57.678;11.910;2022-07-18T06:52:44;19.58;;;9.02;;
49962;SDS011;36180;57.678;11.910;2022-07-18T06:55:12;15.80;;;9.05;;
49962;SDS011;36180;57.678;11.910;2022-07-18T06:57:40;21.08;;;9.18;;
49962;SDS011;36180;57.678;11.910;2022-07-18T07:00:08;16.73;;;9.32;;
49962;SDS011;36180;57.678;11.910;2022-07-18T07:02:39;19.90;;;10.88;;
49962;SDS011;36180;57.678;11.910;2022-07-18T07:05:09;14.88;;;9.88;;
49962;SDS011;36180;57.678;11.910;2022-07-18T07:07:36;17.30;;;11.05;;
49962;SDS011;36180;57.678;11.910;2022-07-18T07:10:04;22.40;;;13.85;;
49962;SDS011;36180;57.678;11.910;2022-07-18T07:12:37;19.23;;;12.35;;
49962;SDS011;36180;57.678;11.910;2022-07-18T07:15:05;25.80;;;13.82;;
49962;SDS011;36180;57.678;11.910;2022-07-18T07:17:33;19.52;;;13.88;;
49962;SDS011;36180;57.678;11.910;2022-07-18T07:20:00;22.60;;;13.70;;
49962;SDS011;36180;57.678;11.910;2022-07-18T07:22:30;23.63;;;14.20;;
49962;SDS011;36180;57.678;11.910;2022-07-18T07:24:57;22.67;;;15.38;;
49962;SDS011;36180;57.678;11.910;2022-07-18T07:27:24;27.75;;;16.95;;
49962;SDS011;36180;57.678;11.910;2022-07-18T07:29:51;32.58;;;18.95;;
49962;SDS011;36180;57.678;11.910;2022-07-18T07:32:18;27.80;;;17.33;;
49962;SDS011;36180;57.678;11.910;2022-07-18T07:34:45;28.75;;;16.45;;
49962;SDS011;36180;57.678;11.910;2022-07-18T07:37:12;24.05;;;14.80;;
49962;SDS011;36180;57.678;11.910;2022-07-18T07:39:41;28.92;;;14.80;;
49962;SDS011;36180;57.678;11.910;2022-07-18T07:42:07;23.15;;;15.60;;
49962;SDS011;36180;57.678;11.910;2022-07-18T07:44:34;23.02;;;15.70;;
49962;SDS011;36180;57.678;11.910;2022-07-18T07:47:02;26.10;;;13.63;;
49962;SDS011;36180;57.678;11.910;2022-07-18T07:49:29;22.98;;;14.07;;
49962;SDS011;36180;57.678;11.910;2022-07-18T07:51:59;25.77;;;13.10;;
49962;SDS011;36180;57.678;11.910;2022-07-18T07:54:26;22.95;;;14.02;;
49962;SDS011;36180;57.678;11.910;2022-07-18T07:56:54;21.52;;;13.98;;
49962;SDS011;36180;57.678;11.910;2022-07-18T07:59:21;21.27;;;13.18;;
49962;SDS011;36180;57.678;11.910;2022-07-18T08:01:48;23.58;;;14.35;;
49962;SDS011;36180;57.678;11.910;2022-07-18T08:04:15;27.08;;;14.68;;
49962;SDS011;36180;57.678;11.910;2022-07-18T08:06:42;21.95;;;13.73;;
49962;SDS011;36180;57.678;11.910;2022-07-18T08:09:09;22.50;;;13.95;;
49962;SDS011;36180;57.678;11.910;2022-07-18T08:11:36;25.10;;;13.77;;
49962;SDS011;36180;57.678;11.910;2022-07-18T08:14:05;24.40;;;14.10;;
49962;SDS011;36180;57.678;11.910;2022-07-18T08:16:32;22.67;;;13.60;;
49962;SDS011;36180;57.678;11.910;2022-07-18T08:18:59;20.15;;;12.35;;
49962;SDS011;36180;57.678;11.910;2022-07-18T08:21:26;18.65;;;12.88;;
49962;SDS011;36180;57.678;11.910;2022-07-18T08:23:53;16.88;;;11.52;;
49962;SDS011;36180;57.678;11.910;2022-07-18T08:26:20;19.83;;;12.68;;
49962;SDS011;36180;57.678;11.910;2022-07-18T08:28:47;21.33;;;12.15;;
49962;SDS011;36180;57.678;11.910;2022-07-18T08:31:15;20.08;;;11.60;;
49962;SDS011;36180;57.678;11.910;2022-07-18T08:33:43;23.13;;;12.70;;
49962;SDS011;36180;57.678;11.910;2022-07-18T08:36:10;19.77;;;13.43;;
49962;SDS011;36180;57.678;11.910;2022-07-18T08:38:37;18.10;;;13.20;;
49962;SDS011;36180;57.678;11.910;2022-07-18T08:41:05;22.80;;;11.82;;
49962;SDS011;36180;57.678;11.910;2022-07-18T08:43:32;23.52;;;13.60;;
49962;SDS011;36180;57.678;11.910;2022-07-18T08:46:01;21.83;;;13.07;;
49962;SDS011;36180;57.678;11.910;2022-07-18T08:48:33;23.90;;;12.43;;
49962;SDS011;36180;57.678;11.910;2022-07-18T08:51:00;27.08;;;12.93;;
49962;SDS011;36180;57.678;11.910;2022-07-18T08:53:27;25.02;;;13.15;;
49962;SDS011;36180;57.678;11.910;2022-07-18T08:55:54;23.15;;;13.55;;
49962;SDS011;36180;57.678;11.910;2022-07-18T08:58:22;21.52;;;13.05;;
49962;SDS011;36180;57.678;11.910;2022-07-18T09:00:49;27.13;;;12.60;;
49962;SDS011;36180;57.678;11.910;2022-07-18T09:03:16;24.08;;;11.95;;
49962;SDS011;36180;57.678;11.910;2022-07-18T09:05:44;22.10;;;13.18;;
49962;SDS011;36180;57.678;11.910;2022-07-18T09:08:12;19.90;;;11.63;;
49962;SDS011;36180;57.678;11.910;2022-07-18T09:10:51;28.63;;;13.82;;
49962;SDS011;36180;57.678;11.910;2022-07-18T09:13:22;25.40;;;13.13;;
49962;SDS011;36180;57.678;11.910;2022-07-18T09:16:00;25.70;;;13.80;;
49962;SDS011;36180;57.678;11.910;2022-07-18T09:18:28;25.67;;;13.65;;
49962;SDS011;36180;57.678;11.910;2022-07-18T09:21:00;25.02;;;13.52;;
49962;SDS011;36180;57.678;11.910;2022-07-18T09:23:29;23.02;;;12.68;;
49962;SDS011;36180;57.678;11.910;2022-07-18T09:25:57;28.75;;;13.85;;
49962;SDS011;36180;57.678;11.910;2022-07-18T09:28:25;19.90;;;12.80;;
49962;SDS011;36180;57.678;11.910;2022-07-18T09:30:52;24.23;;;13.30;;
49962;SDS011;36180;57.678;11.910;2022-07-18T09:33:19;25.20;;;13.45;;
49962;SDS011;36180;57.678;11.910;2022-07-18T09:35:47;23.38;;;12.98;;
49962;SDS011;36180;57.678;11.910;2022-07-18T09:38:17;21.50;;;13.25;;
49962;SDS011;36180;57.678;11.910;2022-07-18T09:40:47;19.80;;;12.88;;
49962;SDS011;36180;57.678;11.910;2022-07-18T09:43:15;23.45;;;13.15;;
49962;SDS011;36180;57.678;11.910;2022-07-18T09:45:44;19.10;;;12.45;;
49962;SDS011;36180;57.678;11.910;2022-07-18T09:48:14;27.92;;;13.60;;
49962;SDS011;36180;57.678;11.910;2022-07-18T09:50:42;20.80;;;12.80;;
49962;SDS011;36180;57.678;11.910;2022-07-18T09:53:12;23.48;;;12.20;;
49962;SDS011;36180;57.678;11.910;2022-07-18T09:55:45;24.63;;;12.32;;
49962;SDS011;36180;57.678;11.910;2022-07-18T09:58:14;29.67;;;13.38;;
49962;SDS011;36180;57.678;11.910;2022-07-18T10:00:43;23.80;;;12.70;;
49962;SDS011;36180;57.678;11.910;2022-07-18T10:03:10;22.65;;;12.15;;
49962;SDS011;36180;57.678;11.910;2022-07-18T10:05:37;24.70;;;13.68;;
49962;SDS011;36180;57.678;11.910;2022-07-18T10:08:06;26.88;;;13.55;;
49962;SDS011;36180;57.678;11.910;2022-07-18T10:10:34;21.40;;;12.68;;
49962;SDS011;36180;57.678;11.910;2022-07-18T10:13:03;26.70;;;12.90;;
49962;SDS011;36180;57.678;11.910;2022-07-18T10:15:32;27.17;;;13.55;;
49962;SDS011;36180;57.678;11.910;2022-07-18T10:18:00;20.23;;;12.43;;
49962;SDS011;36180;57.678;11.910;2022-07-18T10:20:29;25.23;;;14.38;;
49962;SDS011;36180;57.678;11.910;2022-07-18T10:23:01;21.88;;;13.63;;
49962;SDS011;36180;57.678;11.910;2022-07-18T10:25:34;23.38;;;13.45;;
49962;SDS011;36180;57.678;11.910;2022-07-18T10:28:04;26.75;;;12.68;;
49962;SDS011;36180;57.678;11.910;2022-07-18T10:30:37;22.88;;;13.80;;
49962;SDS011;36180;57.678;11.910;2022-07-18T10:36:10;20.30;;;12.27;;
49962;SDS011;36180;57.678;11.910;2022-07-18T10:38:38;20.10;;;11.93;;
49962;SDS011;36180;57.678;11.910;2022-07-18T10:41:09;21.60;;;12.63;;
49962;SDS011;36180;57.678;11.910;2022-07-18T10:43:43;22.15;;;12.15;;
49962;SDS011;36180;57.678;11.910;2022-07-18T10:46:11;22.15;;;12.80;;
49962;SDS011;36180;57.678;11.910;2022-07-18T10:51:30;21.08;;;12.52;;
49962;SDS011;36180;57.678;11.910;2022-07-18T10:54:08;22.50;;;12.52;;
49962;SDS011;36180;57.678;11.910;2022-07-18T10:59:31;19.00;;;11.70;;
49962;SDS011;36180;57.678;11.910;2022-07-18T11:01:59;19.45;;;11.70;;
49962;SDS011;36180;57.678;11.910;2022-07-18T11:04:27;23.77;;;12.18;;
49962;SDS011;36180;57.678;11.910;2022-07-18T11:06:56;20.35;;;11.80;;
49962;SDS011;36180;57.678;11.910;2022-07-18T11:09:36;21.13;;;11.70;;
49962;SDS011;36180;57.678;11.910;2022-07-18T11:12:22;16.73;;;10.30;;
49962;SDS011;36180;57.678;11.910;2022-07-18T11:14:59;16.42;;;10.98;;
49962;SDS011;36180;57.678;11.910;2022-07-18T11:20:24;18.38;;;11.18;;
49962;SDS011;36180;57.678;11.910;2022-07-18T11:22:55;15.88;;;10.00;;
49962;SDS011;36180;57.678;11.910;2022-07-18T11:25:24;14.57;;;10.18;;
49962;SDS011;36180;57.678;11.910;2022-07-18T11:27:52;19.80;;;11.60;;
49962;SDS011;36180;57.678;11.910;2022-07-18T11:30:21;18.40;;;11.48;;
49962;SDS011;36180;57.678;11.910;2022-07-18T11:32:49;17.27;;;10.57;;
49962;SDS011;36180;57.678;11.910;2022-07-18T11:35:20;18.30;;;11.07;;
49962;SDS011;36180;57.678;11.910;2022-07-18T11:37:48;21.87;;;10.77;;
49962;SDS011;36180;57.678;11.910;2022-07-18T11:40:15;19.67;;;10.77;;
49962;SDS011;36180;57.678;11.910;2022-07-18T11:42:43;19.42;;;12.00;;
49962;SDS011;36180;57.678;11.910;2022-07-18T11:45:12;17.30;;;10.60;;
49962;SDS011;36180;57.678;11.910;2022-07-18T11:47:46;20.20;;;9.38;;
49962;SDS011;36180;57.678;11.910;2022-07-18T11:50:13;14.45;;;8.73;;
49962;SDS011;36180;57.678;11.910;2022-07-18T11:52:41;17.48;;;7.85;;
49962;SDS011;36180;57.678;11.910;2022-07-18T11:55:10;12.48;;;6.68;;
49962;SDS011;36180;57.678;11.910;2022-07-18T11:57:37;11.77;;;6.20;;
49962;SDS011;36180;57.678;11.910;2022-07-18T12:00:14;12.80;;;6.40;;
49962;SDS011;36180;57.678;11.910;2022-07-18T12:02:43;11.38;;;6.57;;
49962;SDS011;36180;57.678;11.910;2022-07-18T12:05:33;11.40;;;6.40;;
49962;SDS011;36180;57.678;11.910;2022-07-18T12:11:06;12.23;;;6.18;;
49962;SDS011;36180;57.678;11.910;2022-07-18T12:13:38;13.30;;;6.43;;
49962;SDS011;36180;57.678;11.910;2022-07-18T12:16:26;11.90;;;6.28;;
49962;SDS011;36180;57.678;11.910;2022-07-18T12:18:58;14.63;;;6.30;;
49962;SDS011;36180;57.678;11.910;2022-07-18T12:21:45;14.45;;;6.18;;
49962;SDS011;36180;57.678;11.910;2022-07-18T12:27:10;9.80;;;6.28;;
49962;SDS011;36180;57.678;11.910;2022-07-18T12:29:53;10.65;;;5.18;;
49962;SDS011;36180;57.678;11.910;2022-07-18T12:32:22;16.70;;;5.95;;
49962;SDS011;36180;57.678;11.910;2022-07-18T12:34:55;10.07;;;5.75;;
49962;SDS011;36180;57.678;11.910;2022-07-18T12:37:24;13.05;;;5.22;;
49962;SDS011;36180;57.678;11.910;2022-07-18T12:39:56;7.15;;;5.40;;
49962;SDS011;36180;57.678;11.910;2022-07-18T12:42:27;8.63;;;5.18;;
49962;SDS011;36180;57.678;11.910;2022-07-18T12:44:55;9.18;;;6.00;;
49962;SDS011;36180;57.678;11.910;2022-07-18T12:47:22;11.82;;;5.85;;
49962;SDS011;36180;57.678;11.910;2022-07-18T12:49:49;12.70;;;6.18;;
49962;SDS011;36180;57.678;11.910;2022-07-18T12:52:16;12.55;;;5.60;;
49962;SDS011;36180;57.678;11.910;2022-07-18T12:54:45;15.18;;;7.07;;
49962;SDS011;36180;57.678;11.910;2022-07-18T12:57:12;9.93;;;5.85;;
49962;SDS011;36180;57.678;11.910;2022-07-18T12:59:39;13.15;;;6.47;;
49962;SDS011;36180;57.678;11.910;2022-07-18T13:02:06;8.02;;;5.53;;
49962;SDS011;36180;57.678;11.910;2022-07-18T13:04:33;13.85;;;6.68;;
49962;SDS011;36180;57.678;11.910;2022-07-18T13:07:00;13.95;;;6.40;;
49962;SDS011;36180;57.678;11.910;2022-07-18T13:09:27;7.43;;;5.32;;
49962;SDS011;36180;57.678;11.910;2022-07-18T13:11:55;11.30;;;6.03;;
49962;SDS011;36180;57.678;11.910;2022-07-18T13:14:23;15.13;;;6.40;;
49962;SDS011;36180;57.678;11.910;2022-07-18T13:16:50;14.05;;;5.90;;
49962;SDS011;36180;57.678;11.910;2022-07-18T13:19:17;11.38;;;6.35;;
49962;SDS011;36180;57.678;11.910;2022-07-18T13:21:45;11.57;;;6.10;;
49962;SDS011;36180;57.678;11.910;2022-07-18T13:24:14;13.20;;;5.82;;
49962;SDS011;36180;57.678;11.910;2022-07-18T13:26:41;8.52;;;5.40;;
49962;SDS011;36180;57.678;11.910;2022-07-18T13:29:09;10.38;;;6.03;;
49962;SDS011;36180;57.678;11.910;2022-07-18T13:31:36;11.57;;;5.90;;
49962;SDS011;36180;57.678;11.910;2022-07-18T13:34:03;14.43;;;5.90;;
49962;SDS011;36180;57.678;11.910;2022-07-18T13:36:31;11.10;;;6.60;;
49962;SDS011;36180;57.678;11.910;2022-07-18T13:38:58;12.18;;;6.38;;
49962;SDS011;36180;57.678;11.910;2022-07-18T13:41:27;12.30;;;6.20;;
49962;SDS011;36180;57.678;11.910;2022-07-18T13:43:54;10.23;;;6.13;;
49962;SDS011;36180;57.678;11.910;2022-07-18T13:46:23;11.43;;;6.55;;
49962;SDS011;36180;57.678;11.910;2022-07-18T13:48:50;13.40;;;5.88;;
49962;SDS011;36180;57.678;11.910;2022-07-18T13:51:17;12.35;;;6.45;;
49962;SDS011;36180;57.678;11.910;2022-07-18T13:53:44;10.27;;;5.68;;
49962;SDS011;36180;57.678;11.910;2022-07-18T13:56:11;11.90;;;6.47;;
49962;SDS011;36180;57.678;11.910;2022-07-18T13:58:38;11.02;;;6.53;;
49962;SDS011;36180;57.678;11.910;2022-07-18T14:01:05;14.07;;;6.63;;
49962;SDS011;36180;57.678;11.910;2022-07-18T14:03:33;11.32;;;6.32;;
49962;SDS011;36180;57.678;11.910;2022-07-18T14:06:00;10.88;;;5.45;;
49962;SDS011;36180;57.678;11.910;2022-07-18T14:08:27;11.88;;;5.82;;
49962;SDS011;36180;57.678;11.910;2022-07-18T14:10:55;9.10;;;5.90;;
49962;SDS011;36180;57.678;11.910;2022-07-18T14:13:22;11.63;;;5.68;;
49962;SDS011;36180;57.678;11.910;2022-07-18T14:15:49;18.52;;;7.38;;
49962;SDS011;36180;57.678;11.910;2022-07-18T14:18:16;10.48;;;6.43;;
49962;SDS011;36180;57.678;11.910;2022-07-18T14:20:44;12.27;;;5.68;;
49962;SDS011;36180;57.678;11.910;2022-07-18T14:23:11;9.48;;;5.50;;
49962;SDS011;36180;57.678;11.910;2022-07-18T14:25:38;14.50;;;6.18;;
49962;SDS011;36180;57.678;11.910;2022-07-18T14:28:05;14.98;;;5.82;;
49962;SDS011;36180;57.678;11.910;2022-07-18T14:30:32;16.90;;;6.28;;
49962;SDS011;36180;57.678;11.910;2022-07-18T14:32:59;9.80;;;5.65;;
49962;SDS011;36180;57.678;11.910;2022-07-18T14:35:27;13.27;;;5.32;;
49962;SDS011;36180;57.678;11.910;2022-07-18T14:37:55;12.52;;;6.28;;
49962;SDS011;36180;57.678;11.910;2022-07-18T14:40:22;13.23;;;5.97;;
49962;SDS011;36180;57.678;11.910;2022-07-18T14:42:49;8.60;;;5.88;;